Overview Statistics Trail Chart Weather Telemetry Raw packets
 

This is the latest recevied weather packets stored in our database for station/object Kirchdorf. If no packets are shown the sender has not sent any weather packets the latest 10 day(s).

<< 1 2 3 4 5 6 7 >>
Time Temp. Humidity Pressure Rain* Wind** Luminosity Snow
1788442331 23.89° C 55% 1021.8 hPa 0 mm - - -
1788440530 25° C 51% 1021.8 hPa 0 mm - - -
1788438735 24.44° C 52% 1021.8 hPa 0 mm - - -
1788436935 25.56° C 49% 1022 hPa 0 mm - - -
1788435130 25° C 52% 1022.4 hPa 0 mm - - -
1788433330 24.44° C 56% 1022.2 hPa 0 mm - - -
1788431530 23.33° C 58% 1022.6 hPa 0 mm - - -
1788429731 23.33° C 57% 1022.9 hPa 0 mm - - -
1788427930 22.78° C 63% 1022.8 hPa 0 mm - - -
1788426130 21.67° C 61% 1023 hPa 0 mm - - -
1788424330 21.67° C 61% 1023.2 hPa 0 mm - - -
1788422530 21.11° C 66% 1022.9 hPa 0 mm - - -
1788420736 19.44° C 74% 1022.7 hPa 0 mm - - -
1788418930 17.22° C 80% 1023 hPa 0 mm - - -
1788417130 16.11° C 84% 1023.2 hPa 0 mm - - -
1788415329 13.89° C 91% 1022.9 hPa 0 mm - - -
1788413529 12.22° C 95% 1022.8 hPa 0 mm - - -
1788411729 12.22° C 95% 1022.8 hPa 0 mm - - -
1788409929 11.67° C 94% 1022.8 hPa 0 mm - - -
1788408130 12.22° C 94% 1022.5 hPa 0 mm - - -
1788406331 12.22° C 94% 1022.5 hPa 0 mm - - -
1788404529 12.22° C 94% 1022.6 hPa 0 mm - - -
1788402730 12.78° C 94% 1022.6 hPa 0 mm - - -
1788400929 13.33° C 92% 1022.6 hPa 0 mm - - -
1788399130 13.33° C 91% 1022.8 hPa 0 mm - - -

* Rain since midnight (hover to see other rain measurements)
** Current wind speed in m/s (hover to see current wind gust speed)